Temperatura - Umidità - Pioggia orarie dal 26-06-2022 al 04-07-2022

Intensità - Direzione vento orarie dal 26-06-2022 al 04-07-2022

Dati orari da stazione meteo dal 26-06-2022 al 04-07-2022

Nome Stazione Data Ora Temperatura [°C] Umidità [%] Pioggia [mm] Intensità vento[km/h] Direzione vento [°]
Savigliano 26-06-2022 02:00 19.7 80.1 0 2.9 253
Savigliano 26-06-2022 03:00 18.7 84.2 0 0.7 233
Savigliano 26-06-2022 04:00 17.4 87.6 0 3.2 153
Savigliano 26-06-2022 05:00 17 83.6 0 1.4 164
Savigliano 26-06-2022 06:00 17.1 80.8 0 0.7 161
Savigliano 26-06-2022 07:00 17.4 81.2 0 0.4 168
Savigliano 26-06-2022 08:00 20.1 76.8 0 0.4 210
Savigliano 26-06-2022 09:00 22.4 69.8 0 0.4 109
Savigliano 26-06-2022 10:00 24.4 67.4 0 1.4 75
Savigliano 26-06-2022 11:00 24.9 62.5 0 2.5 89
Savigliano 26-06-2022 12:00 27.5 54.2 0 2.9 143
Savigliano 26-06-2022 13:00 28 50.9 0 2.2 237
Savigliano 26-06-2022 14:00 29.1 45.4 0 1.4 177
Savigliano 26-06-2022 15:00 29.8 46.1 0 4 192
Savigliano 26-06-2022 16:00 30.5 45.6 0 3.2 154
Savigliano 26-06-2022 17:00 30 47.1 0 7.2 123
Savigliano 26-06-2022 18:00 30 47.4 0 2.2 130
Savigliano 26-06-2022 19:00 29.6 48.8 0 4 251
Savigliano 26-06-2022 20:00 27.6 53.8 0 2.2 270
Savigliano 26-06-2022 21:00 25.6 58.7 0 0.7 274
Savigliano 26-06-2022 22:00 23.9 67.6 0 0.4 293
Savigliano 26-06-2022 23:00 22.2 69.7 0 0.4 285
Savigliano 27-06-2022 00:00 22.6 76.2 0 0.4 296
Savigliano 27-06-2022 01:00 21.6 74.9 0 0 271
Savigliano 27-06-2022 02:00 19.6 81.4 0 0.4 223
Savigliano 27-06-2022 03:00 19.8 81.8 0 1.1 174
Savigliano 27-06-2022 04:00 19.8 82.2 0 1.1 168
Savigliano 27-06-2022 05:00 18.6 83.7 0 0.7 173
Savigliano 27-06-2022 06:00 17.1 88.5 0 1.4 172
Savigliano 27-06-2022 07:00 17.3 88.7 0 0.4 160
Savigliano 27-06-2022 08:00 19.7 86.3 0 0.4 142
Savigliano 27-06-2022 09:00 23.1 74.9 0 0.4 128
Savigliano 27-06-2022 10:00 25.1 63.9 0 1.4 243
Savigliano 27-06-2022 11:00 27.3 58.1 0 1.4 228
Savigliano 27-06-2022 12:00 28.7 52.6 0 2.5 200
Savigliano 27-06-2022 13:00 30.1 46.5 0 1.8 196
Savigliano 27-06-2022 14:00 30.1 45.4 0 3.2 159
Savigliano 27-06-2022 15:00 30.5 46.1 0 2.2 190
Savigliano 27-06-2022 16:00 31.2 40.7 0 1.4 198
Savigliano 27-06-2022 17:00 31.2 42.7 0 2.2 145
Savigliano 27-06-2022 18:00 31.1 43.9 0 1.4 154
Savigliano 27-06-2022 19:00 30.2 45.3 0 2.9 277
Savigliano 27-06-2022 20:00 29.9 45.5 0 2.2 276
Savigliano 27-06-2022 21:00 27.4 51.8 0 1.1 276
Savigliano 27-06-2022 22:00 27.2 56.5 0 0.7 285
Savigliano 27-06-2022 23:00 25 62.8 0 0.4 248
Savigliano 28-06-2022 00:00 25 61.8 0 0 274
Savigliano 28-06-2022 01:00 23.5 66.5 0 0 230
Savigliano 28-06-2022 02:00 22.2 74.2 0 0.4 172
Savigliano 28-06-2022 03:00 22.2 72.8 0 1.4 206
Savigliano 28-06-2022 04:00 22.3 75.4 0 0 152
Savigliano 28-06-2022 05:00 20.7 79.2 0 0.4 144
Savigliano 28-06-2022 06:00 19.6 81.4 0 1.8 138
Savigliano 28-06-2022 07:00 19.9 81.3 0 0.7 159
Savigliano 28-06-2022 08:00 22.3 73.2 0 1.4 199
Savigliano 28-06-2022 09:00 22.7 82 0 0.7 155
Savigliano 28-06-2022 10:00 23.7 78.3 0 1.4 272
Savigliano 28-06-2022 11:00 22.5 76.4 0 1.1 249
Savigliano 28-06-2022 12:00 22.5 80.8 0 1.4 263
Savigliano 28-06-2022 13:00 23.9 76.1 0 1.1 251
Savigliano 28-06-2022 14:00 25.9 69.3 0 1.8 197
Savigliano 28-06-2022 15:00 24.7 68 0 4.3 220
Savigliano 28-06-2022 16:00 22.2 69.9 0 4.7 232
Savigliano 28-06-2022 17:00 18.8 81.3 1.2 4.7 255
Savigliano 28-06-2022 18:00 17.1 87.6 0.1 4 257
Savigliano 28-06-2022 19:00 17.7 90.2 0 4 261
Savigliano 28-06-2022 20:00 17.4 92.5 0.2 4 211
Savigliano 28-06-2022 21:00 17.6 91.1 0 3.6 187
Savigliano 28-06-2022 22:00 17.4 89.4 0 5 176
Savigliano 28-06-2022 23:00 17.2 87.6 0 4.3 182
Savigliano 29-06-2022 00:00 17.3 85.5 0 4.3 204
Savigliano 29-06-2022 01:00 16.8 85.6 0 0.4 178
Savigliano 29-06-2022 02:00 15.3 86.8 0 0.7 101
Savigliano 29-06-2022 03:00 16 87.8 0 1.4 102
Savigliano 29-06-2022 04:00 16.9 87.5 0 0.4 221
Savigliano 29-06-2022 05:00 15.1 88.2 0 1.4 277
Savigliano 29-06-2022 06:00 15.2 88.7 0 1.1 275
Savigliano 29-06-2022 07:00 16.1 87.5 0 1.4 196
Savigliano 29-06-2022 08:00 17.6 79.6 0 3.6 175
Savigliano 29-06-2022 09:00 20.9 70.5 0 3.2 169
Savigliano 29-06-2022 10:00 23.5 58.6 0 2.9 165
Savigliano 29-06-2022 11:00 24.9 55.1 0 2.2 125
Savigliano 29-06-2022 12:00 26.3 53.3 0 3.2 117
Savigliano 29-06-2022 13:00 25.8 53.4 0 5.4 80
Savigliano 29-06-2022 14:00 27.5 47.5 0 3.6 100
Savigliano 29-06-2022 15:00 28.7 46.2 0 4.3 122
Savigliano 29-06-2022 16:00 30 46.1 0 6.8 122
Savigliano 29-06-2022 17:00 30 47.4 0 4.7 115
Savigliano 29-06-2022 18:00 29 50.8 0 8.6 76
Savigliano 29-06-2022 19:00 27.4 54.3 0 9.4 84
Savigliano 29-06-2022 20:00 27.5 57.5 0 11.5 88
Savigliano 29-06-2022 21:00 24.9 65.1 0 14 107
Savigliano 29-06-2022 22:00 22.3 73 0 1.4 136
Savigliano 29-06-2022 23:00 22 76.7 0 1.4 150
Savigliano 30-06-2022 00:00 20 82.1 0 0.4 153
Savigliano 30-06-2022 01:00 19.9 81.8 0 1.1 166
Savigliano 30-06-2022 02:00 20 83.2 0 1.1 168
Savigliano 30-06-2022 03:00 19.8 84.2 0 1.8 157
Savigliano 30-06-2022 04:00 18.5 88.2 0 2.2 141
Savigliano 30-06-2022 05:00 19.4 88.8 0 1.4 162
Savigliano 30-06-2022 06:00 18.8 88.9 0 2.2 164
Savigliano 30-06-2022 07:00 18.2 87.4 0 1.1 167
Savigliano 30-06-2022 08:00 19.9 81.3 0 0.4 176
Savigliano 30-06-2022 09:00 22.7 74.1 0 0.4 176
Savigliano 30-06-2022 10:00 24.7 68.4 0 1.1 231
Savigliano 30-06-2022 11:00 26 62.9 0 2.5 107
Savigliano 30-06-2022 12:00 26.7 61.8 0 1.8 98
Savigliano 30-06-2022 13:00 27.5 58.9 0 1.8 90
Savigliano 30-06-2022 14:00 28.2 54.3 0 1.1 119
Savigliano 30-06-2022 15:00 29.1 54.2 0 1.1 162
Savigliano 30-06-2022 16:00 29.6 53 0 1.8 127
Savigliano 30-06-2022 17:00 29.2 48.9 0 1.8 131
Savigliano 30-06-2022 18:00 29.4 50.4 0 1.1 115
Savigliano 30-06-2022 19:00 27.9 53.1 0 9.4 98
Savigliano 30-06-2022 20:00 27.5 54.3 0 3.2 88
Savigliano 30-06-2022 21:00 27.2 61.8 0 0.4 220
Savigliano 30-06-2022 22:00 24.9 65.4 0 0.4 131
Savigliano 30-06-2022 23:00 23.3 74.7 0 2.5 148
Savigliano 01-07-2022 00:00 22.4 75.6 0 2.5 160
Savigliano 01-07-2022 01:00 21.7 80.6 0 1.1 75
Savigliano 01-07-2022 02:00 19.9 82.3 0 2.2 163
Savigliano 01-07-2022 03:00 20 81.4 0 4 261
Savigliano 01-07-2022 04:00 19.9 82.9 0 1.1 269
Savigliano 01-07-2022 05:00 19.7 81.9 0 0 259
Savigliano 01-07-2022 06:00 18.2 84.4 0 2.2 144
Savigliano 01-07-2022 07:00 17.5 88 0 0 155
Savigliano 01-07-2022 08:00 19.9 82.6 0 0.7 224
Savigliano 01-07-2022 09:00 22.4 72.5 0 1.4 274
Savigliano 01-07-2022 10:00 22.4 69.9 0 4.3 236
Savigliano 01-07-2022 11:00 25.1 55.8 0 4 170
Savigliano 01-07-2022 12:00 26.4 53.6 0 2.2 146
Savigliano 01-07-2022 13:00 26.5 51.6 0 4 115
Savigliano 01-07-2022 14:00 27.3 49.4 0 5.8 120
Savigliano 01-07-2022 15:00 28.2 45.9 0 2.2 119
Savigliano 01-07-2022 16:00 29.1 46.4 0 2.5 70
Savigliano 01-07-2022 17:00 29.8 44.9 0 7.6 156
Savigliano 01-07-2022 18:00 29.8 45.9 0 3.2 161
Savigliano 01-07-2022 19:00 29.9 45.3 0 1.8 214
Savigliano 01-07-2022 20:00 28.8 45.2 0 2.5 239
Savigliano 01-07-2022 21:00 27.5 46.4 0 1.4 268
Savigliano 01-07-2022 22:00 25.8 56 0 0.7 187
Savigliano 01-07-2022 23:00 23.9 68.1 0 1.1 176
Savigliano 02-07-2022 00:00 22.2 75.1 0 4.7 187
Savigliano 02-07-2022 01:00 22.4 77.9 0 4.3 189
Savigliano 02-07-2022 02:00 20.2 81.9 0 1.1 168
Savigliano 02-07-2022 03:00 19.8 82.2 0 1.1 189
Savigliano 02-07-2022 04:00 20 82 0 0.4 177
Savigliano 02-07-2022 05:00 19.8 82 0 0.4 195
Savigliano 02-07-2022 06:00 19.7 82.8 0 1.4 176
Savigliano 02-07-2022 07:00 20.1 83.3 0 0 151
Savigliano 02-07-2022 08:00 21.9 76.4 0 0 152
Savigliano 02-07-2022 09:00 24 69.7 0 0.7 290
Savigliano 02-07-2022 10:00 25.5 62.3 0 1.1 155
Savigliano 02-07-2022 11:00 26.8 61.7 0 2.2 92
Savigliano 02-07-2022 12:00 27.6 58.6 0 1.8 153
Savigliano 02-07-2022 13:00 29.6 52.6 0 1.8 118
Savigliano 02-07-2022 14:00 29.8 46.8 0 2.5 92
Savigliano 02-07-2022 15:00 30.1 46.3 0 2.2 112
Savigliano 02-07-2022 16:00 30.6 40.4 0 5 126
Savigliano 02-07-2022 17:00 31.8 37.7 0 1.1 149
Savigliano 02-07-2022 18:00 32.1 37.1 0 4 193
Savigliano 02-07-2022 19:00 30.9 37.9 0 1.4 52
Savigliano 02-07-2022 20:00 30.5 44.7 0 1.1 242
Savigliano 02-07-2022 21:00 28.7 48.9 0 1.4 280
Savigliano 02-07-2022 22:00 27.7 56.4 0 0.7 264
Savigliano 02-07-2022 23:00 25.4 64.7 0 0.4 259
Savigliano 03-07-2022 00:00 24.5 70 0 1.1 236
Savigliano 03-07-2022 01:00 22.6 74.9 0 0.4 204
Savigliano 03-07-2022 02:00 22 78.2 0 0.4 189
Savigliano 03-07-2022 03:00 20.1 82.7 0 0.4 168
Savigliano 03-07-2022 04:00 19.5 81.8 0 0.4 165
Savigliano 03-07-2022 05:00 19.8 82.2 0 1.1 164
Savigliano 03-07-2022 06:00 17.9 87.4 0 1.1 149
Savigliano 03-07-2022 07:00 19 84.8 0 0.7 150
Savigliano 03-07-2022 08:00 21.7 77 0 2.2 161
Savigliano 03-07-2022 09:00 24.6 67.7 0 2.9 130
Savigliano 28-06-2022 16:20 0 0 0.2 0 0
Savigliano 28-06-2022 16:25 0 0 0.2 0 0
Savigliano 28-06-2022 16:30 0 0 0.3 0 0
Savigliano 28-06-2022 16:35 0 0 0.6 0 0
Savigliano 28-06-2022 16:40 0 0 0.8 0 0
Savigliano 28-06-2022 16:45 0 0 0.6 0 0
Savigliano 28-06-2022 16:50 0 0 0.4 0 0
Savigliano 28-06-2022 16:55 0 0 0.4 0 0
Savigliano 28-06-2022 17:05 0 0 0.2 0 0
Savigliano 28-06-2022 17:35 0 0 0.1 0 0
Savigliano 28-06-2022 17:45 0 0 0.1 0 0
Savigliano 28-06-2022 17:50 0 0 0.1 0 0
Savigliano 28-06-2022 17:55 0 0 0.1 0 0
Savigliano 28-06-2022 18:05 0 0 0.1 0 0
Savigliano 28-06-2022 18:10 0 0 0.1 0 0
Savigliano 28-06-2022 18:25 0 0 0.3 0 0
Savigliano 28-06-2022 18:30 0 0 0.2 0 0
Savigliano 28-06-2022 19:20 0 0 0.3 0 0
Savigliano 28-06-2022 19:25 0 0 0.4 0 0
Savigliano 28-06-2022 19:30 0 0 0.7 0 0
Savigliano 28-06-2022 19:35 0 0 0.3 0 0
Savigliano 28-06-2022 19:45 0 0 0.1 0 0
Savigliano 28-06-2022 19:50 0 0 0.2 0 0
Savigliano 28-06-2022 19:55 0 0 0.3 0 0
Savigliano 28-06-2022 20:05 0 0 0.3 0 0
Savigliano 28-06-2022 20:10 0 0 0.1 0 0
Savigliano 28-06-2022 20:15 0 0 0.1 0 0
Savigliano 28-06-2022 20:25 0 0 0.1 0 0
Savigliano 01-07-2022 15:50 0 0 0.1 0 0
Savigliano 26-06-2022 08:40 0 0 0 0 182
Savigliano 27-06-2022 00:20 0 0 0 0 241
Savigliano 27-06-2022 08:40 0 0 0 0 178
Savigliano 28-06-2022 00:20 0 0 0 0 242
Savigliano 28-06-2022 08:40 0 0 0 0 170
Savigliano 29-06-2022 00:20 0 0 0 0 218
Savigliano 29-06-2022 08:40 0 0 0 0 189
Savigliano 30-06-2022 00:20 0 0 0 0 116
Savigliano 30-06-2022 08:40 0 0 0 0 163
Savigliano 01-07-2022 00:20 0 0 0 0 137
Savigliano 01-07-2022 08:40 0 0 0 0 203
Savigliano 02-07-2022 00:20 0 0 0 0 198
Savigliano 02-07-2022 08:40 0 0 0 0 185
Savigliano 03-07-2022 00:20 0 0 0 0 209
Savigliano 03-07-2022 08:40 0 0 0 0 164

Riassuntivo giornaliero del 03-07-2022